Benbrook, Texas
Current Conditions -  °F | °C
As of 3:08 PM on Saturday 22 Nov 2014 (Local Time) from KNFW Reporting Station
Light Rain Light Rain  
Wind Chill: 65°   Ceiling: 1200
Heat Index: 65°   Visibility: 6mi
Dew Point: 57°   Wind: 15mph
Humidity: 75%   Direction: 150°SSE
Pressure: 29.85"   Gusts: 28mph
Location:  32.68°N, 97.45°W
Report Text: KNFW 222108Z 15013G24KT 6SM -RA SCT006 OVC012 18/14 A2985 RMK AO2 P0000 T01830139 $
Loading
Personal Weather Stations






























Interactive Weather Map New forecast layout! Learn more

10-Day Weather Forecast

Advertisements
Track Severe Weather on mobile